This is the latest recevied weather packets stored in our database for station/object KF0ZH. If no packets are shown the sender has not sent any weather packets the latest 10 day(s).
| Time | Temp. | Humidity | Pressure | Rain* | Wind** | Luminosity | Snow |
|---|---|---|---|---|---|---|---|
| 1777866962 | 13.89° C | 55% | 1001.1 hPa | 0 mm | 0 m/s | - | - |
| 1777866662 | 13.89° C | 55% | 1001.3 hPa | 0 mm | 0 m/s | - | - |
| 1777866063 | 13.89° C | 54% | 1001.4 hPa | 0 mm | 0 m/s | - | - |
| 1777864863 | 14.44° C | 54% | 1001.6 hPa | 0 mm | 0 m/s | - | - |
| 1777847463 | 21.11° C | 33% | 1003.3 hPa | 0 mm | 0 m/s | - | - |
| 1777845362 | 21.67° C | 35% | 1003.4 hPa | 0 mm | 3.13 m/s, 327° | - | - |
| 1777845063 | 21.11° C | 36% | 1003.4 hPa | 0 mm | 3.58 m/s, 244° | - | - |
| 1777844463 | 21.11° C | 35% | 1003.5 hPa | 0 mm | 4.02 m/s, 334° | - | - |
| 1777844163 | 21.67° C | 35% | 1003.5 hPa | 0 mm | 2.24 m/s, 223° | - | - |
| 1777843863 | 21.67° C | 38% | 1003.6 hPa | 0 mm | 0 m/s | - | - |
| 1777843563 | 21.11° C | 37% | 1003.6 hPa | 0 mm | 0 m/s | - | - |
| 1777842663 | 21.11° C | 36% | 1003.7 hPa | 0 mm | 0 m/s | - | - |
| 1777842363 | 20.56° C | 38% | 1003.7 hPa | 0 mm | 3.13 m/s, 295° | - | - |
| 1777842063 | 21.11° C | 37% | 1003.7 hPa | 0 mm | 1.79 m/s, 330° | - | - |
| 1777839662 | 20.56° C | 39% | 1004.2 hPa | 0 mm | 0 m/s | - | - |
| 1777839362 | 20° C | 40% | 1004.2 hPa | 0 mm | 3.58 m/s, 326° | - | - |
| 1777839062 | 20° C | 39% | 1004.4 hPa | 0 mm | 3.13 m/s, 1° | - | - |
| 1777838463 | 20.56° C | 37% | 1004.5 hPa | 0 mm | 3.13 m/s, 2° | - | - |
| 1777838163 | 20.56° C | 39% | 1004.6 hPa | 0 mm | 1.79 m/s, 337° | - | - |
| 1777837863 | 20.56° C | 39% | 1004.7 hPa | 0 mm | 4.02 m/s, 288° | - | - |
| 1777836969 | 20° C | 40% | 1004.7 hPa | 0 mm | 2.24 m/s, 327° | - | - |
| 1777836663 | 20° C | 39% | 1004.8 hPa | 0 mm | 1.79 m/s, 341° | - | - |
| 1777836363 | 20° C | 39% | 1004.8 hPa | 0 mm | 2.24 m/s, 315° | - | - |
| 1777836063 | 20° C | 40% | 1004.8 hPa | 0 mm | 2.68 m/s, 272° | - | - |
| 1777835463 | 20.56° C | 37% | 1004.8 hPa | 0 mm | 2.24 m/s, 270° | - | - |
* Rain latest hour (hover to see other rain measurements)
** Current wind speed in m/s (hover to see current wind gust speed)